No.21 Houeimaru — JG5024 — position and weather

sailwx.info

Track history (hours):
 
Tides and Currents Weather Stations Pressure Air Temp Water Temp Dewpoint Dewpoint Depression Visibility Wind Speed Wind Dir Waves Ship Positions

No.21 Houeimaru

Last reported at 2018-Feb-25 04:42 UTC. Time now 2018-Feb-25 05:58 UTC.
Position N 35°31' E 139°46'.

Length 50 m.

Type: Tanker. MMSI: 431009275.

Date/timePositionNaut miles runAvg speedWind from/ knotsBaromVisibWave heightAir tempDewpointWater temp
2018-Feb-25 04:42N 35°31' E 139°46'2 6.6
2018-Feb-25 04:25N 35°30' E 139°48'1 2.5
2018-Feb-25 03:54N 35°29' E 139°50'0 0.0
2018-Feb-25 02:06N 35°29' E 139°50'0 3.2
2018-Feb-25 02:00N 35°29' E 139°49'510.2
2018-Feb-25 01:30N 35°26' E 139°44'4 8.2
2018-Feb-25 01:00N 35°24' E 139°40'0 0.8
2018-Feb-25 00:22N 35°24' E 139°40'0 0.0
2018-Feb-24 23:58N 35°24' E 139°40'0 0.0
2018-Feb-24 23:22N 35°24' E 139°40'0 1.0
2018-Feb-24 22:58N 35°24' E 139°40'1 2.1
2018-Feb-24 22:29N 35°24' E 139°41'5 9.5
2018-Feb-24 22:00N 35°28' E 139°42'1 2.3
2018-Feb-24 21:26N 35°29' E 139°42'0 0.0
2018-Feb-24 20:59N 35°29' E 139°42'0 0.0
2018-Feb-24 20:23N 35°29' E 139°42'0 0.0
2018-Feb-24 19:59N 35°29' E 139°42'0 0.0
2018-Feb-24 19:26N 35°29' E 139°42'0 0.0
2018-Feb-24 18:59N 35°29' E 139°42'0 0.0
2018-Feb-24 18:23N 35°29' E 139°42'0 0.0
2018-Feb-24 17:59N 35°29' E 139°42'0 0.0
2018-Feb-24 17:26N 35°29' E 139°42'0 0.0
2018-Feb-24 16:59N 35°29' E 139°42'0 0.0
2018-Feb-24 16:23N 35°29' E 139°42'0 0.0
2018-Feb-24 15:59N 35°29' E 139°42'0 0.0
2018-Feb-24 15:29N 35°29' E 139°42'0 0.0
2018-Feb-24 14:56N 35°29' E 139°42'0 0.0
2018-Feb-24 14:29N 35°29' E 139°42'0 0.0
2018-Feb-24 13:59N 35°29' E 139°42'0 0.0
2018-Feb-24 13:23N 35°29' E 139°42'0 0.0
2018-Feb-24 12:59N 35°29' E 139°42'0 0.0
2018-Feb-24 12:26N 35°29' E 139°42'0 0.0
2018-Feb-24 11:47N 35°29' E 139°42'0 0.0
2018-Feb-24 11:26N 35°29' E 139°42'0 0.0
2018-Feb-24 10:59N 35°29' E 139°42'0 0.0
2018-Feb-24 10:29N 35°29' E 139°42'0 0.0
2018-Feb-24 09:56N 35°29' E 139°42'0 0.0
2018-Feb-24 09:20N 35°29' E 139°42'0 0.0
2018-Feb-24 08:59N 35°29' E 139°42'0 0.0
2018-Feb-24 08:29N 35°29' E 139°42'0 0.0
2018-Feb-24 07:50N 35°29' E 139°42'0 0.0
2018-Feb-24 07:26N 35°29' E 139°42'0 0.0
2018-Feb-24 06:59N 35°29' E 139°42'0 0.0
2018-Feb-24 06:23N 35°29' E 139°42'0 0.0
2018-Feb-24 05:56N 35°29' E 139°42'0 0.0
2018-Feb-24 05:23N 35°29' E 139°42'0 0.0
2018-Feb-24 04:59N 35°29' E 139°42'0 0.0
2018-Feb-24 04:20N 35°29' E 139°42'0 0.0
2018-Feb-24 03:56N 35°29' E 139°42'0 0.0
2018-Feb-24 03:26N 35°29' E 139°42'0 0.0
2018-Feb-24 02:59N 35°29' E 139°42'0 0.0
2018-Feb-24 02:29N 35°29' E 139°42'0 0.0
2018-Feb-24 01:56N 35°29' E 139°42'0 0.0
2018-Feb-24 01:14N 35°29' E 139°42'0 0.0
2018-Feb-24 00:59N 35°29' E 139°42'0 0.0
2018-Feb-24 00:26N 35°29' E 139°42'0 0.0
2018-Feb-23 23:59N 35°29' E 139°42'0 0.0
2018-Feb-23 23:26N 35°29' E 139°42'0 0.0
2018-Feb-23 22:59N 35°29' E 139°42'0 0.0
2018-Feb-23 22:26N 35°29' E 139°42'0 0.0
2018-Feb-23 21:56N 35°29' E 139°42'0 0.0
2018-Feb-23 21:29N 35°29' E 139°42'0 0.0
2018-Feb-23 20:59N 35°29' E 139°42'0 0.0
2018-Feb-23 20:26N 35°29' E 139°42'0 0.0
2018-Feb-23 19:59N 35°29' E 139°42'0 0.0
2018-Feb-23 19:26N 35°29' E 139°42'0 0.0
2018-Feb-23 18:53N 35°29' E 139°42'0 0.0
2018-Feb-23 18:23N 35°29' E 139°42'0 0.0
2018-Feb-23 17:59N 35°29' E 139°42'0 0.0
2018-Feb-23 17:26N 35°29' E 139°42'0 0.0
2018-Feb-23 16:59N 35°29' E 139°42'0 0.0
2018-Feb-23 16:29N 35°29' E 139°42'0 0.0
2018-Feb-23 15:59N 35°29' E 139°42'0 0.0
2018-Feb-23 15:29N 35°29' E 139°42'0 0.0
2018-Feb-23 14:59N 35°29' E 139°42'0 0.0
2018-Feb-23 14:20N 35°29' E 139°42'0 0.0
2018-Feb-23 13:56N 35°29' E 139°42'0 0.0
2018-Feb-23 13:29N 35°29' E 139°42'0 0.0
2018-Feb-23 12:59N 35°29' E 139°42'0 0.0
2018-Feb-23 12:26N 35°29' E 139°42'0 0.0
2018-Feb-23 11:59N 35°29' E 139°42'0 0.0
2018-Feb-23 11:20N 35°29' E 139°42'0 0.0
2018-Feb-23 10:56N 35°29' E 139°42'0 0.0
2018-Feb-23 10:26N 35°29' E 139°42'0 0.0
2018-Feb-23 09:50N 35°29' E 139°42'0 0.0
2018-Feb-23 09:23N 35°29' E 139°42'0 0.0
2018-Feb-23 08:59N 35°29' E 139°42'0 0.0
2018-Feb-23 08:29N 35°29' E 139°42'0 0.0
2018-Feb-23 07:50N 35°29' E 139°42'0 0.0
2018-Feb-23 07:26N 35°29' E 139°42'0 0.0
2018-Feb-23 06:53N 35°29' E 139°42'1 3.1
2018-Feb-23 06:30N 35°29' E 139°43'3 0.9
2018-Feb-23 03:06N 35°31' E 139°46'1 8.6
2018-Feb-23 02:56N 35°30' E 139°47'4 8.5
2018-Feb-23 02:30N 35°27' E 139°45'5 9.7
2018-Feb-23 02:00N 35°23' E 139°41'3 4.9
2018-Feb-23 01:27N 35°24' E 139°38'0 0.0
2018-Feb-23 01:00N 35°24' E 139°38'0 0.0
2018-Feb-23 00:30N 35°24' E 139°38'0 0.0
2018-Feb-22 23:57N 35°24' E 139°38'0 0.1
2018-Feb-22 23:30N 35°24' E 139°38'1 1.1
2018-Feb-22 22:59N 35°25' E 139°39'3 5.5
2018-Feb-22 22:30N 35°24' E 139°42'5 7.6
2018-Feb-22 21:53N 35°29' E 139°42'0 0.1
2018-Feb-22 21:23N 35°29' E 139°42'0 0.0
2018-Feb-22 20:59N 35°29' E 139°42'0 0.0
2018-Feb-22 20:29N 35°29' E 139°42'0 0.0
2018-Feb-22 19:59N 35°29' E 139°42'0 0.0
2018-Feb-22 19:29N 35°29' E 139°42'0 0.0
2018-Feb-22 18:50N 35°29' E 139°42'0 0.0
2018-Feb-22 18:26N 35°29' E 139°42'0 0.0
2018-Feb-22 17:56N 35°29' E 139°42'0 0.0
2018-Feb-22 17:29N 35°29' E 139°42'0 0.0
2018-Feb-22 16:56N 35°29' E 139°42'0 0.0
2018-Feb-22 16:29N 35°29' E 139°42'0 0.0
2018-Feb-22 15:59N 35°29' E 139°42'0 0.0
2018-Feb-22 15:29N 35°29' E 139°42'0 0.0
2018-Feb-22 14:59N 35°29' E 139°42'0 0.0
2018-Feb-22 14:26N 35°29' E 139°42'0 0.0
2018-Feb-22 13:59N 35°29' E 139°42'0 0.0
2018-Feb-22 13:26N 35°29' E 139°42'0 0.0
2018-Feb-22 12:59N 35°29' E 139°42'0 0.0
2018-Feb-22 12:29N 35°29' E 139°42'0 0.0
2018-Feb-22 11:59N 35°29' E 139°42'0 0.0
2018-Feb-22 11:29N 35°29' E 139°42'0 0.0
2018-Feb-22 10:59N 35°29' E 139°42'0 0.0
2018-Feb-22 10:29N 35°29' E 139°42'0 0.0
2018-Feb-22 09:59N 35°29' E 139°42'0 0.0
2018-Feb-22 09:29N 35°29' E 139°42'0 0.0
2018-Feb-22 08:53N 35°29' E 139°42'0 0.0
2018-Feb-22 08:29N 35°29' E 139°42'0 0.0
2018-Feb-22 07:53N 35°29' E 139°42'0 0.0
2018-Feb-22 07:29N 35°29' E 139°42'0 0.0
2018-Feb-22 06:59N 35°29' E 139°42'0 0.0
2018-Feb-22 06:30N 35°29' E 139°42'1 2.1
2018-Feb-22 06:01N 35°29' E 139°43'3 2.9
2018-Feb-22 04:53N 35°31' E 139°46'0 0.0
2018-Feb-22 03:10N 35°31' E 139°46'1 6.3
2018-Feb-22 03:00N 35°30' E 139°47'5 9.1
2018-Feb-22 02:30N 35°27' E 139°44'4 8.5
2018-Feb-22 02:01N 35°24' E 139°40'2 3.8
2018-Feb-22 01:31N 35°24' E 139°38'0 0.0
2018-Feb-22 00:52N 35°24' E 139°38'0 0.1
2018-Feb-22 00:31N 35°24' E 139°38'0 0.1
2018-Feb-21 23:58N 35°24' E 139°38'0 0.1
2018-Feb-21 23:28N 35°24' E 139°38'1 2.0
2018-Feb-21 22:59N 35°24' E 139°39'3 5.7
2018-Feb-21 22:30N 35°25' E 139°42'4 7.2
2018-Feb-21 21:58N 35°29' E 139°42'0 0.1
2018-Feb-21 21:28N 35°29' E 139°42'0 0.0
2018-Feb-21 20:55N 35°29' E 139°42'0 0.0
2018-Feb-21 20:28N 35°29' E 139°42'0 0.0
2018-Feb-21 19:58N 35°29' E 139°42'0 0.0
2018-Feb-21 19:28N 35°29' E 139°42'0 0.0
2018-Feb-21 18:55N 35°29' E 139°42'0 0.0
2018-Feb-21 18:28N 35°29' E 139°42'0 0.0
2018-Feb-21 17:58N 35°29' E 139°42'0 0.0
2018-Feb-21 17:28N 35°29' E 139°42'0 0.0
2018-Feb-21 16:58N 35°29' E 139°42'0 0.0
2018-Feb-21 16:28N 35°29' E 139°42'0 0.0
2018-Feb-21 15:58N 35°29' E 139°42'0 0.0
2018-Feb-21 15:19N 35°29' E 139°42'0 0.0
2018-Feb-21 14:58N 35°29' E 139°42'0 0.0
2018-Feb-21 14:28N 35°29' E 139°42'0 0.0
2018-Feb-21 13:58N 35°29' E 139°42'0 0.0
2018-Feb-21 13:28N 35°29' E 139°42'0 0.0
2018-Feb-21 12:58N 35°29' E 139°42'0 0.0
2018-Feb-21 12:28N 35°29' E 139°42'0 0.0
2018-Feb-21 11:58N 35°29' E 139°42'0 0.0
2018-Feb-21 11:28N 35°29' E 139°42'0 0.0
2018-Feb-21 10:58N 35°29' E 139°42'0 0.0
2018-Feb-21 10:28N 35°29' E 139°42'0 0.0
2018-Feb-21 09:58N 35°29' E 139°42'0 0.0
2018-Feb-21 09:28N 35°29' E 139°42'0 0.0
2018-Feb-21 08:58N 35°29' E 139°42'0 0.0
2018-Feb-21 08:28N 35°29' E 139°42'0 0.0
2018-Feb-21 07:58N 35°29' E 139°42'0 0.0
2018-Feb-21 07:30N 35°29' E 139°42'4 1.1
2018-Feb-21 03:42N 35°31' E 139°46'1 6.6
2018-Feb-21 03:28N 35°30' E 139°48'2 4.5
2018-Feb-21 02:59N 35°28' E 139°46'3 6.5
2018-Feb-21 02:30N 35°26' E 139°43'4 7.3
2018-Feb-21 02:00N 35°24' E 139°39'1 1.8
2018-Feb-21 01:30N 35°24' E 139°38'0 0.0
2018-Feb-21 01:00N 35°24' E 139°38'0 0.0
2018-Feb-21 00:30N 35°24' E 139°38'0 0.0
2018-Feb-20 23:54N 35°24' E 139°38'0 0.1
2018-Feb-20 23:30N 35°24' E 139°38'0 1.0
2018-Feb-20 23:00N 35°25' E 139°39'3 5.6
2018-Feb-20 22:29N 35°25' E 139°42'4 7.2
2018-Feb-20 21:55N 35°29' E 139°42'0 0.1
2018-Feb-20 21:19N 35°29' E 139°41'0 0.0
2018-Feb-20 20:58N 35°29' E 139°41'0 0.0
2018-Feb-20 20:19N 35°29' E 139°41'0 0.0
2018-Feb-20 19:58N 35°29' E 139°41'0 0.0
2018-Feb-20 19:19N 35°29' E 139°41'0 0.0
2018-Feb-20 18:58N 35°29' E 139°41'0 0.0
2018-Feb-20 18:19N 35°29' E 139°41'0 0.0
2018-Feb-20 17:49N 35°29' E 139°41'0 0.0
2018-Feb-20 17:28N 35°29' E 139°41'0 0.0
2018-Feb-20 16:58N 35°29' E 139°41'0 0.0
2018-Feb-20 16:25N 35°29' E 139°41'0 0.0
2018-Feb-20 15:58N 35°29' E 139°41'0 0.0
2018-Feb-20 15:25N 35°29' E 139°41'0 0.0
2018-Feb-20 14:58N 35°29' E 139°41'0 0.0
2018-Feb-20 14:28N 35°29' E 139°41'0 0.0
2018-Feb-20 13:55N 35°29' E 139°41'0 0.0
2018-Feb-20 13:25N 35°29' E 139°41'0 0.0
2018-Feb-20 12:55N 35°29' E 139°41'0 0.0
2018-Feb-20 12:13N 35°29' E 139°41'0 0.0
2018-Feb-20 11:43N 35°29' E 139°41'0 0.0
2018-Feb-20 11:25N 35°29' E 139°41'0 0.0
2018-Feb-20 10:55N 35°29' E 139°41'0 0.0
2018-Feb-20 10:22N 35°29' E 139°41'0 0.0
2018-Feb-20 09:58N 35°29' E 139°41'0 0.0
2018-Feb-20 09:22N 35°29' E 139°41'0 0.0
2018-Feb-20 08:55N 35°29' E 139°41'0 0.0
2018-Feb-20 08:28N 35°29' E 139°41'4 8.0
2018-Feb-20 08:00N 35°31' E 139°46'0 0.2
2018-Feb-20 05:34N 35°31' E 139°46'3 6.8
2018-Feb-20 05:06N 35°29' E 139°49'0 0.4
2018-Feb-20 04:56N 35°29' E 139°49'0 0.0
2018-Feb-20 04:30N 35°29' E 139°49'0 0.0
2018-Feb-20 03:41N 35°29' E 139°49'0 0.0
2018-Feb-20 03:26N 35°29' E 139°49'1 2.6
2018-Feb-20 03:01N 35°29' E 139°48'5 9.7
2018-Feb-20 02:30N 35°26' E 139°43'4 7.2
2018-Feb-20 02:01N 35°24' E 139°40'1 2.4
2018-Feb-20 01:26N 35°24' E 139°38'0 0.1
2018-Feb-20 00:53N 35°24' E 139°38'0 0.1
2018-Feb-20 00:29N 35°24' E 139°38'0 0.1
2018-Feb-19 23:53N 35°24' E 139°38'0 0.0
2018-Feb-19 23:29N 35°24' E 139°38'0 0.7
2018-Feb-19 23:00N 35°25' E 139°39'3 5.5
2018-Feb-19 22:30N 35°23' E 139°42'611.0
2018-Feb-19 21:59N 35°29' E 139°42'0 0.2
2018-Feb-19 21:20N 35°29' E 139°42'0 0.0
2018-Feb-19 20:44N 35°29' E 139°42'0 0.0
2018-Feb-19 20:23N 35°29' E 139°42'0 0.0
2018-Feb-19 19:56N 35°29' E 139°42'0 0.0
2018-Feb-19 19:26N 35°29' E 139°42'0 0.0
2018-Feb-19 18:59N 35°29' E 139°42'0 0.0
2018-Feb-19 18:29N 35°29' E 139°42'0 0.0
2018-Feb-19 17:59N 35°29' E 139°42'0 0.0
2018-Feb-19 17:29N 35°29' E 139°42'0 0.0
2018-Feb-19 16:59N 35°29' E 139°42'0 0.0
2018-Feb-19 16:29N 35°29' E 139°42'0 0.0
2018-Feb-19 15:56N 35°29' E 139°42'0 0.0
2018-Feb-19 15:29N 35°29' E 139°42'0 0.0
2018-Feb-19 14:56N 35°29' E 139°42'0 0.0
2018-Feb-19 14:17N 35°29' E 139°42'0 0.0
2018-Feb-19 13:59N 35°29' E 139°42'0 0.0
2018-Feb-19 13:29N 35°29' E 139°42'0 0.0
2018-Feb-19 12:59N 35°29' E 139°42'0 0.0
2018-Feb-19 12:26N 35°29' E 139°42'0 0.0
2018-Feb-19 11:59N 35°29' E 139°42'0 0.0
2018-Feb-19 11:29N 35°29' E 139°42'0 0.0
2018-Feb-19 10:56N 35°29' E 139°42'0 0.0
2018-Feb-19 10:26N 35°29' E 139°42'0 0.0
2018-Feb-19 09:50N 35°29' E 139°42'0 0.0
2018-Feb-19 09:29N 35°29' E 139°42'0 0.0
2018-Feb-19 08:56N 35°29' E 139°42'0 0.0
2018-Feb-19 08:23N 35°29' E 139°42'0 0.0
2018-Feb-19 07:56N 35°29' E 139°42'0 0.0
2018-Feb-19 07:26N 35°29' E 139°42'0 0.0
2018-Feb-19 06:56N 35°29' E 139°42'0 0.0
2018-Feb-19 06:29N 35°29' E 139°42'1 2.4
2018-Feb-19 05:59N 35°29' E 139°43'3 1.0
2018-Feb-19 03:06N 35°31' E 139°46'1 8.3
2018-Feb-19 02:57N 35°30' E 139°47'4 9.8
2018-Feb-19 02:30N 35°27' E 139°44'4 8.8
2018-Feb-19 02:00N 35°24' E 139°40'2 3.5
2018-Feb-19 01:29N 35°24' E 139°38'0 0.0
2018-Feb-19 00:50N 35°24' E 139°38'0 0.0
2018-Feb-19 00:23N 35°24' E 139°38'0 0.0
2018-Feb-18 23:50N 35°24' E 139°38'0 0.0
2018-Feb-18 23:29N 35°24' E 139°38'0 0.3
2018-Feb-18 23:00N 35°24' E 139°38'2 4.6
2018-Feb-18 22:30N 35°23' E 139°41'5 9.8
2018-Feb-18 22:00N 35°28' E 139°42'1 1.4
2018-Feb-18 21:25N 35°29' E 139°41'0 0.0
2018-Feb-18 20:58N 35°29' E 139°41'0 0.0
2018-Feb-18 20:28N 35°29' E 139°41'0 0.0
2018-Feb-18 19:58N 35°29' E 139°41'0 0.0
2018-Feb-18 19:28N 35°29' E 139°41'0 0.0
2018-Feb-18 18:58N 35°29' E 139°41'0 0.0
2018-Feb-18 18:28N 35°29' E 139°41'0 0.0
2018-Feb-18 17:55N 35°29' E 139°41'0 0.0
2018-Feb-18 17:28N 35°29' E 139°41'0 0.0
2018-Feb-18 16:58N 35°29' E 139°41'0 0.0
2018-Feb-18 16:28N 35°29' E 139°41'0 0.0
2018-Feb-18 15:58N 35°29' E 139°41'0 0.0
2018-Feb-18 15:28N 35°29' E 139°41'0 0.0
2018-Feb-18 14:58N 35°29' E 139°41'0 0.0
2018-Feb-18 14:28N 35°29' E 139°41'0 0.0
2018-Feb-18 13:52N 35°29' E 139°41'0 0.0
2018-Feb-18 13:28N 35°29' E 139°41'0 0.0
2018-Feb-18 12:58N 35°29' E 139°41'0 0.0
2018-Feb-18 12:28N 35°29' E 139°41'0 0.0
2018-Feb-18 11:52N 35°29' E 139°41'0 0.0
2018-Feb-18 11:28N 35°29' E 139°41'0 0.0
2018-Feb-18 10:58N 35°29' E 139°41'0 0.0
2018-Feb-18 10:28N 35°29' E 139°41'0 0.0
2018-Feb-18 09:55N 35°29' E 139°41'0 0.0
2018-Feb-18 09:28N 35°29' E 139°41'0 0.0
2018-Feb-18 08:58N 35°29' E 139°41'0 0.0
2018-Feb-18 08:28N 35°29' E 139°41'0 0.0
2018-Feb-18 07:58N 35°29' E 139°41'0 0.0
2018-Feb-18 07:28N 35°29' E 139°41'0 0.0
2018-Feb-18 06:58N 35°29' E 139°41'0 0.0
2018-Feb-18 06:28N 35°29' E 139°41'0 0.0
2018-Feb-18 05:58N 35°29' E 139°41'0 0.0
2018-Feb-18 05:22N 35°29' E 139°41'0 0.0
2018-Feb-18 04:58N 35°29' E 139°41'0 0.0
2018-Feb-18 04:25N 35°29' E 139°41'0 0.0
2018-Feb-18 03:58N 35°29' E 139°41'0 0.0
2018-Feb-18 03:28N 35°29' E 139°41'0 0.0
2018-Feb-18 02:55N 35°29' E 139°41'0 0.0
2018-Feb-18 02:28N 35°29' E 139°41'0 0.0
2018-Feb-18 01:55N 35°29' E 139°41'0 0.0
2018-Feb-18 01:28N 35°29' E 139°41'0 0.0
2018-Feb-18 00:58N 35°29' E 139°41'0 0.0
2018-Feb-18 00:28N 35°29' E 139°41'0 0.0
2018-Feb-17 23:58N 35°29' E 139°41'0 0.0
2018-Feb-17 23:28N 35°29' E 139°41'0 0.0
2018-Feb-17 22:46N 35°29' E 139°41'0 0.0
2018-Feb-17 22:28N 35°29' E 139°41'0 0.0
2018-Feb-17 21:58N 35°29' E 139°41'0 0.0
2018-Feb-17 21:28N 35°29' E 139°41'0 0.0
2018-Feb-17 20:52N 35°29' E 139°41'0 0.0
2018-Feb-17 20:22N 35°29' E 139°41'0 0.0
2018-Feb-17 19:58N 35°29' E 139°41'0 0.0
2018-Feb-17 19:28N 35°29' E 139°41'0 0.0
2018-Feb-17 18:58N 35°29' E 139°41'0 0.0
2018-Feb-17 18:28N 35°29' E 139°41'0 0.0
2018-Feb-17 17:58N 35°29' E 139°41'0 0.0
2018-Feb-17 17:28N 35°29' E 139°41'0 0.0
2018-Feb-17 16:58N 35°29' E 139°41'0 0.0
2018-Feb-17 16:28N 35°29' E 139°41'0 0.0
2018-Feb-17 15:58N 35°29' E 139°41'0 0.0
2018-Feb-17 15:28N 35°29' E 139°41'0 0.0
2018-Feb-17 14:58N 35°29' E 139°41'0 0.0
2018-Feb-17 14:28N 35°29' E 139°41'0 0.0
2018-Feb-17 13:58N 35°29' E 139°41'0 0.0
2018-Feb-17 13:25N 35°29' E 139°41'0 0.0
2018-Feb-17 12:55N 35°29' E 139°41'0 0.0
2018-Feb-17 12:28N 35°29' E 139°41'0 0.0
2018-Feb-17 11:58N 35°29' E 139°41'0 0.0
2018-Feb-17 11:28N 35°29' E 139°41'0 0.0
2018-Feb-17 10:58N 35°29' E 139°41'0 0.0
2018-Feb-17 10:28N 35°29' E 139°41'0 0.0
2018-Feb-17 09:58N 35°29' E 139°41'0 0.0
2018-Feb-17 09:28N 35°29' E 139°41'0 0.0
2018-Feb-17 08:58N 35°29' E 139°41'0 0.0
2018-Feb-17 08:22N 35°29' E 139°41'0 0.0
2018-Feb-17 07:52N 35°29' E 139°41'0 0.0
2018-Feb-17 07:25N 35°29' E 139°41'0 0.0
2018-Feb-17 06:58N 35°29' E 139°41'0 0.0
2018-Feb-17 06:28N 35°29' E 139°41'0 0.0
2018-Feb-17 05:58N 35°29' E 139°41'0 0.0
2018-Feb-17 05:28N 35°29' E 139°41'0 0.0
2018-Feb-17 04:58N 35°29' E 139°41'1 1.8
2018-Feb-17 04:30N 35°29' E 139°42'4 1.8
2018-Feb-17 02:31N 35°31' E 139°46'0 2.8
2018-Feb-17 02:27N 35°31' E 139°46'3 7.6
2018-Feb-17 02:00N 35°27' E 139°45'5 9.4
2018-Feb-17 01:26N 35°24' E 139°41'1 2.2
2018-Feb-17 00:52N 35°24' E 139°40'0 0.0
2018-Feb-17 00:28N 35°24' E 139°40'0 0.0
2018-Feb-16 23:55N 35°24' E 139°40'0 0.0
2018-Feb-16 23:28N 35°24' E 139°40'1 1.5
2018-Feb-16 23:00N 35°24' E 139°40'3 7.0
2018-Feb-16 22:30N 35°27' E 139°43'3 5.3
2018-Feb-16 22:00N 35°29' E 139°42'0 0.0
2018-Feb-16 21:27N 35°29' E 139°42'0 0.0
2018-Feb-16 20:51N 35°29' E 139°42'0 0.0
2018-Feb-16 20:30N 35°29' E 139°42'0 0.0
2018-Feb-16 19:57N 35°29' E 139°42'0 0.0
2018-Feb-16 19:27N 35°29' E 139°42'0 0.0
2018-Feb-16 18:57N 35°29' E 139°42'0 0.0
2018-Feb-16 18:21N 35°29' E 139°42'0 0.0
2018-Feb-16 17:57N 35°29' E 139°42'0 0.0
2018-Feb-16 17:30N 35°29' E 139°42'0 0.0
2018-Feb-16 16:54N 35°29' E 139°42'0 0.0
2018-Feb-16 16:21N 35°29' E 139°42'0 0.0
2018-Feb-16 16:00N 35°29' E 139°42'0 0.0
2018-Feb-16 15:21N 35°29' E 139°42'0 0.0
2018-Feb-16 14:57N 35°29' E 139°42'0 0.0
2018-Feb-16 14:27N 35°29' E 139°42'0 0.0
2018-Feb-16 13:57N 35°29' E 139°42'0 0.0
2018-Feb-16 13:30N 35°29' E 139°42'0 0.0
2018-Feb-16 13:00N 35°29' E 139°42'0 0.0
2018-Feb-16 12:27N 35°29' E 139°42'0 0.0
2018-Feb-16 11:57N 35°29' E 139°42'0 0.0
2018-Feb-16 11:30N 35°29' E 139°42'0 0.0
2018-Feb-16 11:00N 35°29' E 139°42'0 0.0
2018-Feb-16 10:21N 35°29' E 139°42'0 0.0
2018-Feb-16 09:45N 35°29' E 139°42'0 0.0
2018-Feb-16 09:24N 35°29' E 139°42'0 0.0
2018-Feb-16 09:00N 35°29' E 139°42'0 0.0
2018-Feb-16 08:27N 35°29' E 139°42'0 0.0
2018-Feb-16 08:00N 35°29' E 139°42'0 0.0
2018-Feb-16 07:18N 35°29' E 139°42'0 0.0
2018-Feb-16 07:00N 35°29' E 139°42'0 0.0
2018-Feb-16 06:30N 35°29' E 139°42'0 0.0
2018-Feb-16 06:00N 35°29' E 139°42'0 0.0
2018-Feb-16 05:27N 35°29' E 139°42'0 0.0
2018-Feb-16 04:54N 35°29' E 139°42'0 0.1
2018-Feb-16 04:25N 35°29' E 139°42'4 6.5
2018-Feb-16 03:46N 35°31' E 139°46'0 0.0
2018-Feb-16 03:28N 35°31' E 139°46'0 0.0
2018-Feb-16 02:58N 35°31' E 139°46'0 0.3
2018-Feb-16 02:28N 35°31' E 139°46'3 7.5
2018-Feb-16 02:00N 35°27' E 139°45'5 9.7
2018-Feb-16 01:30N 35°24' E 139°41'2 3.1
2018-Feb-16 00:57N 35°24' E 139°40'0 0.0
2018-Feb-16 00:27N 35°24' E 139°40'0 0.0
2018-Feb-15 23:51N 35°24' E 139°40'0 0.0
2018-Feb-15 23:30N 35°24' E 139°40'1 1.3
2018-Feb-15 23:00N 35°24' E 139°40'2 4.7
2018-Feb-15 22:30N 35°24' E 139°42'611.9
2018-Feb-15 22:00N 35°28' E 139°48'1 0.4
2018-Feb-15 18:42N 35°29' E 139°49'0 0.0
2018-Feb-15 15:21N 35°29' E 139°49'0 0.0
2018-Feb-15 14:00N 35°29' E 139°49'0 0.0
2018-Feb-15 13:27N 35°29' E 139°49'0 0.0
2018-Feb-15 12:09N 35°29' E 139°49'0 0.0
2018-Feb-15 11:54N 35°29' E 139°49'0 0.0
2018-Feb-15 11:30N 35°29' E 139°49'0 0.0
2018-Feb-15 10:33N 35°29' E 139°49'0 0.2
2018-Feb-15 10:30N 35°29' E 139°49'0 0.0
2018-Feb-15 09:36N 35°29' E 139°49'0 1.0
2018-Feb-15 09:30N 35°29' E 139°49'3 0.7
2018-Feb-15 05:29N 35°31' E 139°46'4 7.9
2018-Feb-15 05:01N 35°27' E 139°45'  
Track history (hours):
 
Tides and Currents Weather Stations Pressure Air Temp Water Temp Dewpoint Dewpoint Depression Visibility Wind Speed Wind Dir Waves Ship Positions

No.21 Houeimaru

Last reported at 2018-Feb-25 04:42 UTC. Time now 2018-Feb-25 05:58 UTC.
Position N 35°31' E 139°46'.

Length 50 m.

Type: Tanker. MMSI: 431009275.

Date/timePositionNaut miles runAvg speedWind from/ knotsBaromVisibWave heightAir tempDewpointWater temp
2018-Feb-25 04:42N 35°31' E 139°46'2 6.6
2018-Feb-25 04:25N 35°30' E 139°48'1 2.5
2018-Feb-25 03:54N 35°29' E 139°50'0 0.0
2018-Feb-25 02:06N 35°29' E 139°50'0 3.2
2018-Feb-25 02:00N 35°29' E 139°49'510.2
2018-Feb-25 01:30N 35°26' E 139°44'4 8.2
2018-Feb-25 01:00N 35°24' E 139°40'0 0.8
2018-Feb-25 00:22N 35°24' E 139°40'0 0.0
2018-Feb-24 23:58N 35°24' E 139°40'0 0.0
2018-Feb-24 23:22N 35°24' E 139°40'0 1.0
2018-Feb-24 22:58N 35°24' E 139°40'1 2.1
2018-Feb-24 22:29N 35°24' E 139°41'5 9.5
2018-Feb-24 22:00N 35°28' E 139°42'1 2.3
2018-Feb-24 21:26N 35°29' E 139°42'0 0.0
2018-Feb-24 20:59N 35°29' E 139°42'0 0.0
2018-Feb-24 20:23N 35°29' E 139°42'0 0.0
2018-Feb-24 19:59N 35°29' E 139°42'0 0.0
2018-Feb-24 19:26N 35°29' E 139°42'0 0.0
2018-Feb-24 18:59N 35°29' E 139°42'0 0.0
2018-Feb-24 18:23N 35°29' E 139°42'0 0.0
2018-Feb-24 17:59N 35°29' E 139°42'0 0.0
2018-Feb-24 17:26N 35°29' E 139°42'0 0.0
2018-Feb-24 16:59N 35°29' E 139°42'0 0.0
2018-Feb-24 16:23N 35°29' E 139°42'0 0.0
2018-Feb-24 15:59N 35°29' E 139°42'0 0.0
2018-Feb-24 15:29N 35°29' E 139°42'0 0.0
2018-Feb-24 14:56N 35°29' E 139°42'0 0.0
2018-Feb-24 14:29N 35°29' E 139°42'0 0.0
2018-Feb-24 13:59N 35°29' E 139°42'0 0.0
2018-Feb-24 13:23N 35°29' E 139°42'0 0.0
2018-Feb-24 12:59N 35°29' E 139°42'0 0.0
2018-Feb-24 12:26N 35°29' E 139°42'0 0.0
2018-Feb-24 11:47N 35°29' E 139°42'0 0.0
2018-Feb-24 11:26N 35°29' E 139°42'0 0.0
2018-Feb-24 10:59N 35°29' E 139°42'0 0.0
2018-Feb-24 10:29N 35°29' E 139°42'0 0.0
2018-Feb-24 09:56N 35°29' E 139°42'0 0.0
2018-Feb-24 09:20N 35°29' E 139°42'0 0.0
2018-Feb-24 08:59N 35°29' E 139°42'0 0.0
2018-Feb-24 08:29N 35°29' E 139°42'0 0.0
2018-Feb-24 07:50N 35°29' E 139°42'0 0.0
2018-Feb-24 07:26N 35°29' E 139°42'0 0.0
2018-Feb-24 06:59N 35°29' E 139°42'0 0.0
2018-Feb-24 06:23N 35°29' E 139°42'0 0.0
2018-Feb-24 05:56N 35°29' E 139°42'0 0.0
2018-Feb-24 05:23N 35°29' E 139°42'0 0.0
2018-Feb-24 04:59N 35°29' E 139°42'0 0.0
2018-Feb-24 04:20N 35°29' E 139°42'0 0.0
2018-Feb-24 03:56N 35°29' E 139°42'0 0.0
2018-Feb-24 03:26N 35°29' E 139°42'0 0.0
2018-Feb-24 02:59N 35°29' E 139°42'0 0.0
2018-Feb-24 02:29N 35°29' E 139°42'0 0.0
2018-Feb-24 01:56N 35°29' E 139°42'0 0.0
2018-Feb-24 01:14N 35°29' E 139°42'0 0.0
2018-Feb-24 00:59N 35°29' E 139°42'0 0.0
2018-Feb-24 00:26N 35°29' E 139°42'0 0.0
2018-Feb-23 23:59N 35°29' E 139°42'0 0.0
2018-Feb-23 23:26N 35°29' E 139°42'0 0.0
2018-Feb-23 22:59N 35°29' E 139°42'0 0.0
2018-Feb-23 22:26N 35°29' E 139°42'0 0.0
2018-Feb-23 21:56N 35°29' E 139°42'0 0.0
2018-Feb-23 21:29N 35°29' E 139°42'0 0.0
2018-Feb-23 20:59N 35°29' E 139°42'0 0.0
2018-Feb-23 20:26N 35°29' E 139°42'0 0.0
2018-Feb-23 19:59N 35°29' E 139°42'0 0.0
2018-Feb-23 19:26N 35°29' E 139°42'0 0.0
2018-Feb-23 18:53N 35°29' E 139°42'0 0.0
2018-Feb-23 18:23N 35°29' E 139°42'0 0.0
2018-Feb-23 17:59N 35°29' E 139°42'0 0.0
2018-Feb-23 17:26N 35°29' E 139°42'0 0.0
2018-Feb-23 16:59N 35°29' E 139°42'0 0.0
2018-Feb-23 16:29N 35°29' E 139°42'0 0.0
2018-Feb-23 15:59N 35°29' E 139°42'0 0.0
2018-Feb-23 15:29N 35°29' E 139°42'0 0.0
2018-Feb-23 14:59N 35°29' E 139°42'0 0.0
2018-Feb-23 14:20N 35°29' E 139°42'0 0.0
2018-Feb-23 13:56N 35°29' E 139°42'0 0.0
2018-Feb-23 13:29N 35°29' E 139°42'0 0.0
2018-Feb-23 12:59N 35°29' E 139°42'0 0.0
2018-Feb-23 12:26N 35°29' E 139°42'0 0.0
2018-Feb-23 11:59N 35°29' E 139°42'0 0.0
2018-Feb-23 11:20N 35°29' E 139°42'0 0.0
2018-Feb-23 10:56N 35°29' E 139°42'0 0.0
2018-Feb-23 10:26N 35°29' E 139°42'0 0.0
2018-Feb-23 09:50N 35°29' E 139°42'0 0.0
2018-Feb-23 09:23N 35°29' E 139°42'0 0.0
2018-Feb-23 08:59N 35°29' E 139°42'0 0.0
2018-Feb-23 08:29N 35°29' E 139°42'0 0.0
2018-Feb-23 07:50N 35°29' E 139°42'0 0.0
2018-Feb-23 07:26N 35°29' E 139°42'0 0.0
2018-Feb-23 06:53N 35°29' E 139°42'1 3.1
2018-Feb-23 06:30N 35°29' E 139°43'3 0.9
2018-Feb-23 03:06N 35°31' E 139°46'1 8.6
2018-Feb-23 02:56N 35°30' E 139°47'4 8.5
2018-Feb-23 02:30N 35°27' E 139°45'5 9.7
2018-Feb-23 02:00N 35°23' E 139°41'3 4.9
2018-Feb-23 01:27N 35°24' E 139°38'0 0.0
2018-Feb-23 01:00N 35°24' E 139°38'0 0.0
2018-Feb-23 00:30N 35°24' E 139°38'0 0.0
2018-Feb-22 23:57N 35°24' E 139°38'0 0.1
2018-Feb-22 23:30N 35°24' E 139°38'1 1.1
2018-Feb-22 22:59N 35°25' E 139°39'3 5.5
2018-Feb-22 22:30N 35°24' E 139°42'5 7.6
2018-Feb-22 21:53N 35°29' E 139°42'0 0.1
2018-Feb-22 21:23N 35°29' E 139°42'0 0.0
2018-Feb-22 20:59N 35°29' E 139°42'0 0.0
2018-Feb-22 20:29N 35°29' E 139°42'0 0.0
2018-Feb-22 19:59N 35°29' E 139°42'0 0.0
2018-Feb-22 19:29N 35°29' E 139°42'0 0.0
2018-Feb-22 18:50N 35°29' E 139°42'0 0.0
2018-Feb-22 18:26N 35°29' E 139°42'0 0.0
2018-Feb-22 17:56N 35°29' E 139°42'0 0.0
2018-Feb-22 17:29N 35°29' E 139°42'0 0.0
2018-Feb-22 16:56N 35°29' E 139°42'0 0.0
2018-Feb-22 16:29N 35°29' E 139°42'0 0.0
2018-Feb-22 15:59N 35°29' E 139°42'0 0.0
2018-Feb-22 15:29N 35°29' E 139°42'0 0.0
2018-Feb-22 14:59N 35°29' E 139°42'0 0.0
2018-Feb-22 14:26N 35°29' E 139°42'0 0.0
2018-Feb-22 13:59N 35°29' E 139°42'0 0.0
2018-Feb-22 13:26N 35°29' E 139°42'0 0.0
2018-Feb-22 12:59N 35°29' E 139°42'0 0.0
2018-Feb-22 12:29N 35°29' E 139°42'0 0.0
2018-Feb-22 11:59N 35°29' E 139°42'0 0.0
2018-Feb-22 11:29N 35°29' E 139°42'0 0.0
2018-Feb-22 10:59N 35°29' E 139°42'0 0.0
2018-Feb-22 10:29N 35°29' E 139°42'0 0.0
2018-Feb-22 09:59N 35°29' E 139°42'0 0.0
2018-Feb-22 09:29N 35°29' E 139°42'0 0.0
2018-Feb-22 08:53N 35°29' E 139°42'0 0.0
2018-Feb-22 08:29N 35°29' E 139°42'0 0.0
2018-Feb-22 07:53N 35°29' E 139°42'0 0.0
2018-Feb-22 07:29N 35°29' E 139°42'0 0.0
2018-Feb-22 06:59N 35°29' E 139°42'0 0.0
2018-Feb-22 06:30N 35°29' E 139°42'1 2.1
2018-Feb-22 06:01N 35°29' E 139°43'3 2.9
2018-Feb-22 04:53N 35°31' E 139°46'0 0.0
2018-Feb-22 03:10N 35°31' E 139°46'1 6.3
2018-Feb-22 03:00N 35°30' E 139°47'5 9.1
2018-Feb-22 02:30N 35°27' E 139°44'4 8.5
2018-Feb-22 02:01N 35°24' E 139°40'2 3.8
2018-Feb-22 01:31N 35°24' E 139°38'0 0.0
2018-Feb-22 00:52N 35°24' E 139°38'0 0.1
2018-Feb-22 00:31N 35°24' E 139°38'0 0.1
2018-Feb-21 23:58N 35°24' E 139°38'0 0.1
2018-Feb-21 23:28N 35°24' E 139°38'1 2.0
2018-Feb-21 22:59N 35°24' E 139°39'3 5.7
2018-Feb-21 22:30N 35°25' E 139°42'4 7.2
2018-Feb-21 21:58N 35°29' E 139°42'0 0.1
2018-Feb-21 21:28N 35°29' E 139°42'0 0.0
2018-Feb-21 20:55N 35°29' E 139°42'0 0.0
2018-Feb-21 20:28N 35°29' E 139°42'0 0.0
2018-Feb-21 19:58N 35°29' E 139°42'0 0.0
2018-Feb-21 19:28N 35°29' E 139°42'0 0.0
2018-Feb-21 18:55N 35°29' E 139°42'0 0.0
2018-Feb-21 18:28N 35°29' E 139°42'0 0.0
2018-Feb-21 17:58N 35°29' E 139°42'0 0.0
2018-Feb-21 17:28N 35°29' E 139°42'0 0.0
2018-Feb-21 16:58N 35°29' E 139°42'0 0.0
2018-Feb-21 16:28N 35°29' E 139°42'0 0.0
2018-Feb-21 15:58N 35°29' E 139°42'0 0.0
2018-Feb-21 15:19N 35°29' E 139°42'0 0.0
2018-Feb-21 14:58N 35°29' E 139°42'0 0.0
2018-Feb-21 14:28N 35°29' E 139°42'0 0.0
2018-Feb-21 13:58N 35°29' E 139°42'0 0.0
2018-Feb-21 13:28N 35°29' E 139°42'0 0.0
2018-Feb-21 12:58N 35°29' E 139°42'0 0.0
2018-Feb-21 12:28N 35°29' E 139°42'0 0.0
2018-Feb-21 11:58N 35°29' E 139°42'0 0.0
2018-Feb-21 11:28N 35°29' E 139°42'0 0.0
2018-Feb-21 10:58N 35°29' E 139°42'0 0.0
2018-Feb-21 10:28N 35°29' E 139°42'0 0.0
2018-Feb-21 09:58N 35°29' E 139°42'0 0.0
2018-Feb-21 09:28N 35°29' E 139°42'0 0.0
2018-Feb-21 08:58N 35°29' E 139°42'0 0.0
2018-Feb-21 08:28N 35°29' E 139°42'0 0.0
2018-Feb-21 07:58N 35°29' E 139°42'0 0.0
2018-Feb-21 07:30N 35°29' E 139°42'4 1.1
2018-Feb-21 03:42N 35°31' E 139°46'1 6.6
2018-Feb-21 03:28N 35°30' E 139°48'2 4.5
2018-Feb-21 02:59N 35°28' E 139°46'3 6.5
2018-Feb-21 02:30N 35°26' E 139°43'4 7.3
2018-Feb-21 02:00N 35°24' E 139°39'1 1.8
2018-Feb-21 01:30N 35°24' E 139°38'0 0.0
2018-Feb-21 01:00N 35°24' E 139°38'0 0.0
2018-Feb-21 00:30N 35°24' E 139°38'0 0.0
2018-Feb-20 23:54N 35°24' E 139°38'0 0.1
2018-Feb-20 23:30N 35°24' E 139°38'0 1.0
2018-Feb-20 23:00N 35°25' E 139°39'3 5.6
2018-Feb-20 22:29N 35°25' E 139°42'4 7.2
2018-Feb-20 21:55N 35°29' E 139°42'0 0.1
2018-Feb-20 21:19N 35°29' E 139°41'0 0.0
2018-Feb-20 20:58N 35°29' E 139°41'0 0.0
2018-Feb-20 20:19N 35°29' E 139°41'0 0.0
2018-Feb-20 19:58N 35°29' E 139°41'0 0.0
2018-Feb-20 19:19N 35°29' E 139°41'0 0.0
2018-Feb-20 18:58N 35°29' E 139°41'0 0.0
2018-Feb-20 18:19N 35°29' E 139°41'0 0.0
2018-Feb-20 17:49N 35°29' E 139°41'0 0.0
2018-Feb-20 17:28N 35°29' E 139°41'0 0.0
2018-Feb-20 16:58N 35°29' E 139°41'0 0.0
2018-Feb-20 16:25N 35°29' E 139°41'0 0.0
2018-Feb-20 15:58N 35°29' E 139°41'0 0.0
2018-Feb-20 15:25N 35°29' E 139°41'0 0.0
2018-Feb-20 14:58N 35°29' E 139°41'0 0.0
2018-Feb-20 14:28N 35°29' E 139°41'0 0.0
2018-Feb-20 13:55N 35°29' E 139°41'0 0.0
2018-Feb-20 13:25N 35°29' E 139°41'0 0.0
2018-Feb-20 12:55N 35°29' E 139°41'0 0.0
2018-Feb-20 12:13N 35°29' E 139°41'0 0.0
2018-Feb-20 11:43N 35°29' E 139°41'0 0.0
2018-Feb-20 11:25N 35°29' E 139°41'0 0.0
2018-Feb-20 10:55N 35°29' E 139°41'0 0.0
2018-Feb-20 10:22N 35°29' E 139°41'0 0.0
2018-Feb-20 09:58N 35°29' E 139°41'0 0.0
2018-Feb-20 09:22N 35°29' E 139°41'0 0.0
2018-Feb-20 08:55N 35°29' E 139°41'0 0.0
2018-Feb-20 08:28N 35°29' E 139°41'4 8.0
2018-Feb-20 08:00N 35°31' E 139°46'0 0.2
2018-Feb-20 05:34N 35°31' E 139°46'3 6.8
2018-Feb-20 05:06N 35°29' E 139°49'0 0.4
2018-Feb-20 04:56N 35°29' E 139°49'0 0.0
2018-Feb-20 04:30N 35°29' E 139°49'0 0.0
2018-Feb-20 03:41N 35°29' E 139°49'0 0.0
2018-Feb-20 03:26N 35°29' E 139°49'1 2.6
2018-Feb-20 03:01N 35°29' E 139°48'5 9.7
2018-Feb-20 02:30N 35°26' E 139°43'4 7.2
2018-Feb-20 02:01N 35°24' E 139°40'1 2.4
2018-Feb-20 01:26N 35°24' E 139°38'0 0.1
2018-Feb-20 00:53N 35°24' E 139°38'0 0.1
2018-Feb-20 00:29N 35°24' E 139°38'0 0.1
2018-Feb-19 23:53N 35°24' E 139°38'0 0.0
2018-Feb-19 23:29N 35°24' E 139°38'0 0.7
2018-Feb-19 23:00N 35°25' E 139°39'3 5.5
2018-Feb-19 22:30N 35°23' E 139°42'611.0
2018-Feb-19 21:59N 35°29' E 139°42'0 0.2
2018-Feb-19 21:20N 35°29' E 139°42'0 0.0
2018-Feb-19 20:44N 35°29' E 139°42'0 0.0
2018-Feb-19 20:23N 35°29' E 139°42'0 0.0
2018-Feb-19 19:56N 35°29' E 139°42'0 0.0
2018-Feb-19 19:26N 35°29' E 139°42'0 0.0
2018-Feb-19 18:59N 35°29' E 139°42'0 0.0
2018-Feb-19 18:29N 35°29' E 139°42'0 0.0
2018-Feb-19 17:59N 35°29' E 139°42'0 0.0
2018-Feb-19 17:29N 35°29' E 139°42'0 0.0
2018-Feb-19 16:59N 35°29' E 139°42'0 0.0
2018-Feb-19 16:29N 35°29' E 139°42'0 0.0
2018-Feb-19 15:56N 35°29' E 139°42'0 0.0
2018-Feb-19 15:29N 35°29' E 139°42'0 0.0
2018-Feb-19 14:56N 35°29' E 139°42'0 0.0
2018-Feb-19 14:17N 35°29' E 139°42'0 0.0
2018-Feb-19 13:59N 35°29' E 139°42'0 0.0
2018-Feb-19 13:29N 35°29' E 139°42'0 0.0
2018-Feb-19 12:59N 35°29' E 139°42'0 0.0
2018-Feb-19 12:26N 35°29' E 139°42'0 0.0
2018-Feb-19 11:59N 35°29' E 139°42'0 0.0
2018-Feb-19 11:29N 35°29' E 139°42'0 0.0
2018-Feb-19 10:56N 35°29' E 139°42'0 0.0
2018-Feb-19 10:26N 35°29' E 139°42'0 0.0
2018-Feb-19 09:50N 35°29' E 139°42'0 0.0
2018-Feb-19 09:29N 35°29' E 139°42'0 0.0
2018-Feb-19 08:56N 35°29' E 139°42'0 0.0
2018-Feb-19 08:23N 35°29' E 139°42'0 0.0
2018-Feb-19 07:56N 35°29' E 139°42'0 0.0
2018-Feb-19 07:26N 35°29' E 139°42'0 0.0
2018-Feb-19 06:56N 35°29' E 139°42'0 0.0
2018-Feb-19 06:29N 35°29' E 139°42'1 2.4
2018-Feb-19 05:59N 35°29' E 139°43'3 1.0
2018-Feb-19 03:06N 35°31' E 139°46'1 8.3
2018-Feb-19 02:57N 35°30' E 139°47'4 9.8
2018-Feb-19 02:30N 35°27' E 139°44'4 8.8
2018-Feb-19 02:00N 35°24' E 139°40'2 3.5
2018-Feb-19 01:29N 35°24' E 139°38'0 0.0
2018-Feb-19 00:50N 35°24' E 139°38'0 0.0
2018-Feb-19 00:23N 35°24' E 139°38'0 0.0
2018-Feb-18 23:50N 35°24' E 139°38'0 0.0
2018-Feb-18 23:29N 35°24' E 139°38'0 0.3
2018-Feb-18 23:00N 35°24' E 139°38'2 4.6
2018-Feb-18 22:30N 35°23' E 139°41'5 9.8
2018-Feb-18 22:00N 35°28' E 139°42'1 1.4
2018-Feb-18 21:25N 35°29' E 139°41'0 0.0
2018-Feb-18 20:58N 35°29' E 139°41'0 0.0
2018-Feb-18 20:28N 35°29' E 139°41'0 0.0
2018-Feb-18 19:58N 35°29' E 139°41'0 0.0
2018-Feb-18 19:28N 35°29' E 139°41'0 0.0
2018-Feb-18 18:58N 35°29' E 139°41'0 0.0
2018-Feb-18 18:28N 35°29' E 139°41'0 0.0
2018-Feb-18 17:55N 35°29' E 139°41'0 0.0
2018-Feb-18 17:28N 35°29' E 139°41'0 0.0
2018-Feb-18 16:58N 35°29' E 139°41'0 0.0
2018-Feb-18 16:28N 35°29' E 139°41'0 0.0
2018-Feb-18 15:58N 35°29' E 139°41'0 0.0
2018-Feb-18 15:28N 35°29' E 139°41'0 0.0
2018-Feb-18 14:58N 35°29' E 139°41'0 0.0
2018-Feb-18 14:28N 35°29' E 139°41'0 0.0
2018-Feb-18 13:52N 35°29' E 139°41'0 0.0
2018-Feb-18 13:28N 35°29' E 139°41'0 0.0
2018-Feb-18 12:58N 35°29' E 139°41'0 0.0
2018-Feb-18 12:28N 35°29' E 139°41'0 0.0
2018-Feb-18 11:52N 35°29' E 139°41'0 0.0
2018-Feb-18 11:28N 35°29' E 139°41'0 0.0
2018-Feb-18 10:58N 35°29' E 139°41'0 0.0
2018-Feb-18 10:28N 35°29' E 139°41'0 0.0
2018-Feb-18 09:55N 35°29' E 139°41'0 0.0
2018-Feb-18 09:28N 35°29' E 139°41'0 0.0
2018-Feb-18 08:58N 35°29' E 139°41'0 0.0
2018-Feb-18 08:28N 35°29' E 139°41'0 0.0
2018-Feb-18 07:58N 35°29' E 139°41'0 0.0
2018-Feb-18 07:28N 35°29' E 139°41'0 0.0
2018-Feb-18 06:58N 35°29' E 139°41'0 0.0
2018-Feb-18 06:28N 35°29' E 139°41'0 0.0
2018-Feb-18 05:58N 35°29' E 139°41'0 0.0
2018-Feb-18 05:22N 35°29' E 139°41'0 0.0
2018-Feb-18 04:58N 35°29' E 139°41'0 0.0
2018-Feb-18 04:25N 35°29' E 139°41'0 0.0
2018-Feb-18 03:58N 35°29' E 139°41'0 0.0
2018-Feb-18 03:28N 35°29' E 139°41'0 0.0
2018-Feb-18 02:55N 35°29' E 139°41'0 0.0
2018-Feb-18 02:28N 35°29' E 139°41'0 0.0
2018-Feb-18 01:55N 35°29' E 139°41'0 0.0
2018-Feb-18 01:28N 35°29' E 139°41'0 0.0
2018-Feb-18 00:58N 35°29' E 139°41'0 0.0
2018-Feb-18 00:28N 35°29' E 139°41'0 0.0
2018-Feb-17 23:58N 35°29' E 139°41'0 0.0
2018-Feb-17 23:28N 35°29' E 139°41'0 0.0
2018-Feb-17 22:46N 35°29' E 139°41'0 0.0
2018-Feb-17 22:28N 35°29' E 139°41'0 0.0
2018-Feb-17 21:58N 35°29' E 139°41'0 0.0
2018-Feb-17 21:28N 35°29' E 139°41'0 0.0
2018-Feb-17 20:52N 35°29' E 139°41'0 0.0
2018-Feb-17 20:22N 35°29' E 139°41'0 0.0
2018-Feb-17 19:58N 35°29' E 139°41'0 0.0
2018-Feb-17 19:28N 35°29' E 139°41'0 0.0
2018-Feb-17 18:58N 35°29' E 139°41'0 0.0
2018-Feb-17 18:28N 35°29' E 139°41'0 0.0
2018-Feb-17 17:58N 35°29' E 139°41'0 0.0
2018-Feb-17 17:28N 35°29' E 139°41'0 0.0
2018-Feb-17 16:58N 35°29' E 139°41'0 0.0
2018-Feb-17 16:28N 35°29' E 139°41'0 0.0
2018-Feb-17 15:58N 35°29' E 139°41'0 0.0
2018-Feb-17 15:28N 35°29' E 139°41'0 0.0
2018-Feb-17 14:58N 35°29' E 139°41'0 0.0
2018-Feb-17 14:28N 35°29' E 139°41'0 0.0
2018-Feb-17 13:58N 35°29' E 139°41'0 0.0
2018-Feb-17 13:25N 35°29' E 139°41'0 0.0
2018-Feb-17 12:55N 35°29' E 139°41'0 0.0
2018-Feb-17 12:28N 35°29' E 139°41'0 0.0
2018-Feb-17 11:58N 35°29' E 139°41'0 0.0
2018-Feb-17 11:28N 35°29' E 139°41'0 0.0
2018-Feb-17 10:58N 35°29' E 139°41'0 0.0
2018-Feb-17 10:28N 35°29' E 139°41'0 0.0
2018-Feb-17 09:58N 35°29' E 139°41'0 0.0
2018-Feb-17 09:28N 35°29' E 139°41'0 0.0
2018-Feb-17 08:58N 35°29' E 139°41'0 0.0
2018-Feb-17 08:22N 35°29' E 139°41'0 0.0
2018-Feb-17 07:52N 35°29' E 139°41'0 0.0
2018-Feb-17 07:25N 35°29' E 139°41'0 0.0
2018-Feb-17 06:58N 35°29' E 139°41'0 0.0
2018-Feb-17 06:28N 35°29' E 139°41'0 0.0
2018-Feb-17 05:58N 35°29' E 139°41'0 0.0
2018-Feb-17 05:28N 35°29' E 139°41'0 0.0
2018-Feb-17 04:58N 35°29' E 139°41'1 1.8
2018-Feb-17 04:30N 35°29' E 139°42'4 1.8
2018-Feb-17 02:31N 35°31' E 139°46'0 2.8
2018-Feb-17 02:27N 35°31' E 139°46'3 7.6
2018-Feb-17 02:00N 35°27' E 139°45'5 9.4
2018-Feb-17 01:26N 35°24' E 139°41'1 2.2
2018-Feb-17 00:52N 35°24' E 139°40'0 0.0
2018-Feb-17 00:28N 35°24' E 139°40'0 0.0
2018-Feb-16 23:55N 35°24' E 139°40'0 0.0
2018-Feb-16 23:28N 35°24' E 139°40'1 1.5
2018-Feb-16 23:00N 35°24' E 139°40'3 7.0
2018-Feb-16 22:30N 35°27' E 139°43'3 5.3
2018-Feb-16 22:00N 35°29' E 139°42'0 0.0
2018-Feb-16 21:27N 35°29' E 139°42'0 0.0
2018-Feb-16 20:51N 35°29' E 139°42'0 0.0
2018-Feb-16 20:30N 35°29' E 139°42'0 0.0
2018-Feb-16 19:57N 35°29' E 139°42'0 0.0
2018-Feb-16 19:27N 35°29' E 139°42'0 0.0
2018-Feb-16 18:57N 35°29' E 139°42'0 0.0
2018-Feb-16 18:21N 35°29' E 139°42'0 0.0
2018-Feb-16 17:57N 35°29' E 139°42'0 0.0
2018-Feb-16 17:30N 35°29' E 139°42'0 0.0
2018-Feb-16 16:54N 35°29' E 139°42'0 0.0
2018-Feb-16 16:21N 35°29' E 139°42'0 0.0
2018-Feb-16 16:00N 35°29' E 139°42'0 0.0
2018-Feb-16 15:21N 35°29' E 139°42'0 0.0
2018-Feb-16 14:57N 35°29' E 139°42'0 0.0
2018-Feb-16 14:27N 35°29' E 139°42'0 0.0
2018-Feb-16 13:57N 35°29' E 139°42'0 0.0
2018-Feb-16 13:30N 35°29' E 139°42'0 0.0
2018-Feb-16 13:00N 35°29' E 139°42'0 0.0
2018-Feb-16 12:27N 35°29' E 139°42'0 0.0
2018-Feb-16 11:57N 35°29' E 139°42'0 0.0
2018-Feb-16 11:30N 35°29' E 139°42'0 0.0
2018-Feb-16 11:00N 35°29' E 139°42'0 0.0
2018-Feb-16 10:21N 35°29' E 139°42'0 0.0
2018-Feb-16 09:45N 35°29' E 139°42'0 0.0
2018-Feb-16 09:24N 35°29' E 139°42'0 0.0
2018-Feb-16 09:00N 35°29' E 139°42'0 0.0
2018-Feb-16 08:27N 35°29' E 139°42'0 0.0
2018-Feb-16 08:00N 35°29' E 139°42'0 0.0
2018-Feb-16 07:18N 35°29' E 139°42'0 0.0
2018-Feb-16 07:00N 35°29' E 139°42'0 0.0
2018-Feb-16 06:30N 35°29' E 139°42'0 0.0
2018-Feb-16 06:00N 35°29' E 139°42'0 0.0
2018-Feb-16 05:27N 35°29' E 139°42'0 0.0
2018-Feb-16 04:54N 35°29' E 139°42'0 0.1
2018-Feb-16 04:25N 35°29' E 139°42'4 6.5
2018-Feb-16 03:46N 35°31' E 139°46'0 0.0
2018-Feb-16 03:28N 35°31' E 139°46'0 0.0
2018-Feb-16 02:58N 35°31' E 139°46'0 0.3
2018-Feb-16 02:28N 35°31' E 139°46'3 7.5
2018-Feb-16 02:00N 35°27' E 139°45'5 9.7
2018-Feb-16 01:30N 35°24' E 139°41'2 3.1
2018-Feb-16 00:57N 35°24' E 139°40'0 0.0
2018-Feb-16 00:27N 35°24' E 139°40'0 0.0
2018-Feb-15 23:51N 35°24' E 139°40'0 0.0
2018-Feb-15 23:30N 35°24' E 139°40'1 1.3
2018-Feb-15 23:00N 35°24' E 139°40'2 4.7
2018-Feb-15 22:30N 35°24' E 139°42'611.9
2018-Feb-15 22:00N 35°28' E 139°48'1 0.4
2018-Feb-15 18:42N 35°29' E 139°49'0 0.0
2018-Feb-15 15:21N 35°29' E 139°49'0 0.0
2018-Feb-15 14:00N 35°29' E 139°49'0 0.0
2018-Feb-15 13:27N 35°29' E 139°49'0 0.0
2018-Feb-15 12:09N 35°29' E 139°49'0 0.0
2018-Feb-15 11:54N 35°29' E 139°49'0 0.0
2018-Feb-15 11:30N 35°29' E 139°49'0 0.0
2018-Feb-15 10:33N 35°29' E 139°49'0 0.2
2018-Feb-15 10:30N 35°29' E 139°49'0 0.0
2018-Feb-15 09:36N 35°29' E 139°49'0 1.0
2018-Feb-15 09:30N 35°29' E 139°49'3 0.7
2018-Feb-15 05:29N 35°31' E 139°46'4 7.9
2018-Feb-15 05:01N 35°27' E 139°45'  

Dump ship's entire track history